Time;durP1;ratioP1;P1;durP2;ratioP2;P2;SDS_P1;SDS_P2;PMS_P1;PMS_P2;Temp;Humidity;BMP_temperature;BMP_pressure;BME280_temperature;BME280_humidity;BME280_pressure;Samples;Min_cycle;Max_cycle;Signal;HPM_P1;HPM_P2
2023/06/17 00:00:13;;;;;;;;;16.33;14.67;;;;;23.41;40.36;101286.16;5039824;28;45362;-69
2023/06/17 00:02:38;;;;;;;;;17.33;16.33;;;;;23.31;40.26;101275.19;5039500;28;46302;-68
2023/06/17 00:05:04;;;;;;;;;13.33;13.00;;;;;23.33;40.45;101283.16;5039290;28;45218;-71
2023/06/17 00:07:30;;;;;;;;;17.67;17.67;;;;;23.34;40.68;101292.91;5039137;28;45576;-70
2023/06/17 00:09:55;;;;;;;;;16.67;15.67;;;;;23.28;40.58;101286.16;5039109;28;45309;-70
2023/06/17 00:12:21;;;;;;;;;20.33;17.00;;;;;23.29;40.48;101288.75;5039236;28;46484;-68
2023/06/17 00:14:47;;;;;;;;;18.00;16.00;;;;;23.21;39.82;101276.78;5039291;28;45384;-68
2023/06/17 00:17:14;;;;;;;;;19.00;16.00;;;;;23.10;40.57;101272.97;5039019;28;45384;-68
2023/06/17 00:19:40;;;;;;;;;18.33;17.00;;;;;23.12;40.79;101278.28;5039153;28;45497;-67
2023/06/17 00:22:05;;;;;;;;;17.67;17.67;;;;;23.15;40.54;101287.94;5038964;28;47117;-67
2023/06/17 00:24:31;;;;;;;;;15.67;15.67;;;;;23.07;40.43;101270.47;5039214;28;45242;-70
2023/06/17 00:26:56;;;;;;;;;20.33;17.33;;;;;23.09;40.29;101278.44;5039107;28;45389;-70
2023/06/17 00:29:23;;;;;;;;;16.67;16.33;;;;;23.08;40.67;101279.41;5039190;28;45238;-70
2023/06/17 00:31:48;;;;;;;;;13.00;13.00;;;;;23.04;40.50;101273.38;5038671;28;47137;-70
2023/06/17 00:34:13;;;;;;;;;16.67;16.00;;;;;23.07;40.51;101275.00;5038563;28;45318;-70
2023/06/17 00:36:39;;;;;;;;;15.00;15.00;;;;;23.02;40.73;101269.94;5039004;28;45412;-70
2023/06/17 00:39:05;;;;;;;;;17.33;16.33;;;;;22.99;41.19;101271.94;5039316;28;45423;-70
2023/06/17 00:41:30;;;;;;;;;18.00;15.67;;;;;22.97;40.76;101266.69;5038398;28;47147;-70
2023/06/17 00:43:55;;;;;;;;;22.00;19.00;;;;;22.94;40.87;101259.69;5038658;28;45341;-70
2023/06/17 00:46:43;;;;;;;;;17.67;16.67;;;;;22.92;40.93;101272.38;5039036;28;45312;-69
2023/06/17 00:49:12;;;;;;;;;17.33;16.33;;;;;22.84;40.98;101265.78;5039058;28;45425;-69
2023/06/17 00:51:38;;;;;;;;;19.67;16.67;;;;;22.77;41.31;101254.56;5037362;28;46008;-70
2023/06/17 00:54:05;;;;;;;;;14.00;14.00;;;;;22.60;41.02;101229.72;5038419;28;45325;-70
2023/06/17 00:56:33;;;;;;;;;17.33;16.33;;;;;22.70;41.06;101251.47;5038336;28;45443;-70
2023/06/17 00:59:02;;;;;;;;;16.00;15.33;;;;;22.71;40.84;101260.38;5038678;28;45524;-70
2023/06/17 01:01:29;;;;;;;;;17.00;15.67;;;;;22.64;41.46;101253.66;5038687;28;45457;-70
2023/06/17 01:03:55;;;;;;;;;17.67;16.33;;;;;22.63;41.66;101254.63;5038121;28;45326;-70
2023/06/17 01:06:45;;;;;;;;;17.33;16.67;;;;;22.66;41.52;101254.44;5037673;28;45294;-70
2023/06/17 01:09:15;;;;;;;;;17.33;16.67;;;;;22.64;41.46;101259.91;5018513;28;45282;-70
2023/06/17 01:11:42;;;;;;;;;19.67;15.67;;;;;22.62;41.79;101258.28;5029794;28;46174;-70
2023/06/17 01:14:10;;;;;;;;;19.67;17.00;;;;;22.56;41.80;101249.66;5038092;28;45325;-70
2023/06/17 01:16:41;;;;;;;;;18.33;15.33;;;;;22.51;42.15;101246.44;5038058;28;45360;-70
2023/06/17 01:19:18;;;;;;;;;17.00;15.00;;;;;22.51;41.73;101250.91;5038516;28;45390;-70
2023/06/17 01:21:48;;;;;;;;;14.00;14.00;;;;;22.27;41.95;101220.19;5037868;28;46220;-70
2023/06/17 01:24:25;;;;;;;;;14.00;14.00;;;;;22.24;42.24;101220.38;5037935;28;45235;-70
2023/06/17 01:26:55;;;;;;;;;16.00;16.00;;;;;22.36;42.17;101240.22;5037405;28;45511;-70
2023/06/17 01:29:22;;;;;;;;;20.33;17.00;;;;;22.39;42.90;101245.41;5038136;28;45543;-70
2023/06/17 01:31:49;;;;;;;;;23.00;22.00;;;;;22.34;42.74;101241.31;5037914;28;45383;-70
2023/06/17 01:34:18;;;;;;;;;18.00;13.33;;;;;22.33;42.80;101250.31;5037916;28;45478;-68
2023/06/17 01:36:46;;;;;;;;;15.33;15.33;;;;;22.32;42.73;101243.19;5038030;28;45384;-69
2023/06/17 01:39:18;;;;;;;;;17.33;16.00;;;;;22.22;42.10;101233.03;5038154;28;45348;-68
2023/06/17 01:41:48;;;;;;;;;15.67;15.33;;;;;22.15;42.26;101229.03;5037440;28;46221;-69
2023/06/17 01:44:15;;;;;;;;;21.00;18.33;;;;;22.19;42.25;101248.47;5037857;28;45371;-69
2023/06/17 01:46:42;;;;;;;;;17.33;16.67;;;;;22.16;42.50;101244.19;5037847;28;45366;-69
2023/06/17 01:49:08;;;;;;;;;18.67;17.00;;;;;22.07;42.80;101232.22;5038117;28;45167;-69
2023/06/17 01:51:33;;;;;;;;;15.33;15.33;;;;;22.03;42.90;101235.16;5037170;28;45731;-69
2023/06/17 01:54:01;;;;;;;;;17.00;16.33;;;;;22.04;42.88;101236.91;5037652;28;45299;-69
2023/06/17 01:56:27;;;;;;;;;14.33;14.33;;;;;22.04;42.94;101236.91;5037827;28;45509;-68
2023/06/17 01:58:52;;;;;;;;;23.33;19.33;;;;;22.03;42.78;101232.47;5037788;28;45690;-69
2023/06/17 02:01:18;;;;;;;;;13.00;13.00;;;;;21.95;43.05;101227.63;5037652;28;46518;-69
2023/06/17 02:03:44;;;;;;;;;18.33;16.33;;;;;21.99;43.08;101236.34;5037569;28;45231;-69
2023/06/17 02:06:10;;;;;;;;;22.00;17.67;;;;;21.82;43.00;101206.06;5037400;28;45449;-69
2023/06/17 02:08:36;;;;;;;;;18.00;16.67;;;;;21.86;43.29;101225.53;5037738;28;45338;-68
2023/06/17 02:11:02;;;;;;;;;19.33;19.33;;;;;21.79;43.54;101229.53;5037313;28;47332;-68
2023/06/17 02:13:27;;;;;;;;;17.67;16.00;;;;;21.60;43.54;101193.16;5037057;28;45329;-68
2023/06/17 02:15:52;;;;;;;;;16.33;16.33;;;;;21.73;43.48;101215.56;5037539;28;45310;-68
2023/06/17 02:18:18;;;;;;;;;19.67;17.67;;;;;21.79;43.36;101224.19;5036495;28;45351;-69
2023/06/17 02:20:45;;;;;;;;;19.67;17.00;;;;;21.72;43.43;101215.66;5037082;28;46615;-69
2023/06/17 02:23:11;;;;;;;;;17.67;16.33;;;;;21.69;43.68;101218.53;5037190;28;45453;-68
2023/06/17 02:25:39;;;;;;;;;18.33;16.67;;;;;21.65;43.43;101208.94;5037416;28;45398;-68
2023/06/17 02:28:05;;;;;;;;;20.00;17.67;;;;;21.60;43.77;101195.00;5037496;28;45448;-69
2023/06/17 02:30:31;;;;;;;;;18.67;18.33;;;;;21.65;43.65;101208.94;5037063;28;45515;-68
2023/06/17 02:32:56;;;;;;;;;17.33;17.33;;;;;21.62;43.69;101203.78;5036994;28;45403;-68
2023/06/17 02:35:21;;;;;;;;;20.33;16.67;;;;;21.62;43.91;101207.31;5036975;28;45310;-69
2023/06/17 02:37:47;;;;;;;;;16.33;16.33;;;;;21.54;44.35;101199.75;5037330;28;45306;-69
2023/06/17 02:40:12;;;;;;;;;18.33;17.00;;;;;21.49;44.18;101191.13;5037088;28;45352;-69
2023/06/17 02:42:39;;;;;;;;;18.00;17.00;;;;;21.53;44.51;101205.22;5037047;28;45277;-69
2023/06/17 02:45:06;;;;;;;;;21.00;18.33;;;;;21.48;44.47;101196.56;5036964;28;45475;-69
2023/06/17 02:47:32;;;;;;;;;22.33;19.00;;;;;21.48;44.66;101193.88;5036669;28;45620;-69
2023/06/17 02:49:57;;;;;;;;;18.67;15.67;;;;;21.49;44.44;101199.16;5036785;28;46054;-69
2023/06/17 02:52:23;;;;;;;;;17.67;16.67;;;;;21.39;44.69;101177.44;5036932;28;45408;-69
2023/06/17 02:54:50;;;;;;;;;18.67;17.00;;;;;21.49;44.69;101196.47;5036941;28;45228;-68
2023/06/17 02:57:16;;;;;;;;;22.00;19.33;;;;;21.42;44.43;101184.44;5037300;28;45396;-68
2023/06/17 02:59:42;;;;;;;;;21.00;19.00;;;;;21.38;44.65;101183.72;5036249;28;46543;-68
2023/06/17 03:02:08;;;;;;;;;20.67;20.00;;;;;21.36;44.39;101188.34;5036558;28;45460;-68
2023/06/17 03:04:36;;;;;;;;;19.67;17.33;;;;;21.34;44.89;101192.06;5037016;28;45318;-68
2023/06/17 03:07:04;;;;;;;;;20.00;18.67;;;;;21.28;44.93;101190.63;5036915;28;45419;-68
2023/06/17 03:09:30;;;;;;;;;20.00;17.33;;;;;21.25;44.96;101190.81;5036594;28;46580;-68
2023/06/17 03:11:55;;;;;;;;;15.33;14.00;;;;;21.25;45.08;101190.81;5036653;28;45363;-68
2023/06/17 03:14:20;;;;;;;;;17.67;17.33;;;;;21.27;45.13;101190.69;5036347;28;45464;-68
2023/06/17 03:16:46;;;;;;;;;22.00;19.00;;;;;21.01;44.85;101145.81;5037033;28;45234;-69
2023/06/17 03:19:12;;;;;;;;;21.33;20.00;;;;;21.20;45.61;101188.41;5036463;28;46404;-69
2023/06/17 03:21:40;;;;;;;;;25.33;18.67;;;;;21.03;45.55;101169.81;5036587;28;45357;-70
2023/06/17 03:24:06;;;;;;;;;21.67;21.67;;;;;21.09;45.11;101180.16;5036891;28;45651;-69
2023/06/17 03:26:32;;;;;;;;;20.33;17.00;;;;;21.04;45.39;101174.19;5036801;28;45269;-69
2023/06/17 03:28:57;;;;;;;;;16.67;14.00;;;;;21.05;45.69;101181.28;5037315;28;45342;-68
2023/06/17 03:31:23;;;;;;;;;20.00;18.00;;;;;21.05;45.37;101181.28;5040012;28;45329;-68
2023/06/17 03:33:52;;;;;;;;;20.67;18.33;;;;;21.11;45.33;101188.09;5039911;28;45416;-68
2023/06/17 03:36:19;;;;;;;;;20.33;17.67;;;;;20.94;45.24;101163.19;5040194;28;45364;-68
2023/06/17 03:38:45;;;;;;;;;17.67;17.67;;;;;21.01;45.79;101182.41;5039309;28;45478;-68
2023/06/17 03:41:11;;;;;;;;;20.67;20.67;;;;;20.78;45.38;101151.66;5039865;28;45456;-68
2023/06/17 03:43:36;;;;;;;;;24.67;19.33;;;;;20.91;45.63;101176.75;5039827;28;45299;-69
2023/06/17 03:46:01;;;;;;;;;22.00;18.67;;;;;20.85;46.00;101178.00;5039981;28;45405;-68
2023/06/17 03:48:27;;;;;;;;;20.00;19.00;;;;;20.90;45.36;101175.03;5039832;28;45781;-68
2023/06/17 03:50:52;;;;;;;;;25.67;20.67;;;;;20.84;45.94;101165.56;5039440;28;45343;-69
2023/06/17 03:53:18;;;;;;;;;14.00;13.00;;;;;20.89;45.88;101175.97;5039578;28;45322;-68
2023/06/17 03:55:43;;;;;;;;;21.33;19.00;;;;;20.90;46.18;101177.72;5039890;28;45263;-68
2023/06/17 03:58:14;;;;;;;;;17.67;17.67;;;;;20.86;45.79;101179.69;5039432;28;46851;-68
2023/06/17 04:00:43;;;;;;;;;22.33;20.00;;;;;20.82;45.74;101172.78;5040133;28;45429;-68
2023/06/17 04:03:08;;;;;;;;;19.00;17.00;;;;;20.82;45.78;101180.81;5039381;28;45615;-68
2023/06/17 04:05:33;;;;;;;;;20.00;18.33;;;;;20.86;45.97;101178.84;5039635;28;45228;-68
2023/06/17 04:08:02;;;;;;;;;17.33;16.00;;;;;20.86;45.70;101173.50;5039010;28;45618;-69
2023/06/17 04:10:28;;;;;;;;;19.67;18.67;;;;;20.91;45.84;101176.75;5039309;28;45311;-69
2023/06/17 04:12:53;;;;;;;;;25.33;19.00;;;;;20.91;45.67;101176.75;5039484;28;45349;-69
2023/06/17 04:15:19;;;;;;;;;18.67;18.67;;;;;20.79;45.80;101145.38;5038822;28;45466;-69
2023/06/17 04:17:44;;;;;;;;;18.33;17.33;;;;;20.87;45.40;101168.03;5039235;28;46434;-68
2023/06/17 04:20:10;;;;;;;;;17.33;15.67;;;;;20.79;45.65;101164.09;5039173;28;45258;-68
2023/06/17 04:22:37;;;;;;;;;17.67;16.00;;;;;20.79;45.59;101170.31;5039174;28;45317;-68
2023/06/17 04:25:03;;;;;;;;;22.00;19.67;;;;;20.78;45.92;101173.06;5039360;28;45419;-69
2023/06/17 04:27:29;;;;;;;;;19.67;18.67;;;;;20.74;45.88;101172.41;5038713;28;47460;-69
2023/06/17 04:29:56;;;;;;;;;17.33;16.33;;;;;20.69;45.84;101163.78;5038465;28;45488;-69
2023/06/17 04:32:22;;;;;;;;;21.67;19.00;;;;;20.75;45.53;101173.25;5039087;28;45342;-68
2023/06/17 04:34:47;;;;;;;;;16.33;15.33;;;;;20.60;45.70;101151.75;5039049;28;45564;-69
2023/06/17 04:37:14;;;;;;;;;18.67;16.33;;;;;20.68;46.21;101170.94;5038541;28;47009;-69
2023/06/17 04:39:41;;;;;;;;;17.00;16.67;;;;;20.70;45.72;101165.50;5038198;28;45423;-69
2023/06/17 04:42:07;;;;;;;;;17.33;17.33;;;;;20.73;45.80;101172.50;5038662;28;45230;-68
2023/06/17 04:44:33;;;;;;;;;18.00;18.00;;;;;20.67;45.89;101161.19;5039126;28;45436;-69
2023/06/17 04:46:59;;;;;;;;;18.33;17.67;;;;;20.66;46.00;101163.94;5038717;28;45504;-69
2023/06/17 04:49:24;;;;;;;;;18.00;16.00;;;;;20.66;46.30;101164.81;5038908;28;45386;-69
2023/06/17 04:51:52;;;;;;;;;20.33;16.00;;;;;20.72;46.21;101178.78;5038739;28;45264;-69
2023/06/17 04:54:18;;;;;;;;;17.67;17.67;;;;;20.60;46.56;101156.25;5038608;28;45415;-70
2023/06/17 04:56:43;;;;;;;;;18.33;16.67;;;;;20.71;46.28;101167.25;5038344;28;45495;-70
2023/06/17 04:59:09;;;;;;;;;20.33;19.33;;;;;20.74;46.37;101167.06;5038336;28;45454;-70
2023/06/17 05:01:34;;;;;;;;;19.67;17.00;;;;;20.76;46.12;101161.63;5038895;28;45430;-69
2023/06/17 05:03:59;;;;;;;;;17.00;16.00;;;;;20.81;46.28;101164.84;5038912;28;45343;-69
2023/06/17 05:06:25;;;;;;;;;18.67;16.00;;;;;20.87;45.87;101168.03;5038182;28;46478;-69
2023/06/17 05:08:50;;;;;;;;;19.67;19.33;;;;;20.79;45.59;101156.94;5038567;28;45320;-69
2023/06/17 05:11:15;;;;;;;;;20.00;15.67;;;;;20.83;45.76;101158.47;5038193;28;45211;-69
2023/06/17 05:13:41;;;;;;;;;21.00;18.33;;;;;20.92;45.54;101173.13;5038404;28;45450;-69
2023/06/17 05:16:06;;;;;;;;;19.67;17.00;;;;;20.91;45.47;101163.34;5037927;28;45445;-69
2023/06/17 05:18:31;;;;;;;;;16.67;14.67;;;;;20.93;45.13;101152.59;5037905;28;45398;-68
2023/06/17 05:20:57;;;;;;;;;20.33;18.67;;;;;20.99;45.54;101154.88;5038476;28;45291;-69
2023/06/17 05:23:22;;;;;;;;;16.00;16.00;;;;;21.11;44.90;101164.84;5038161;28;45475;-69
2023/06/17 05:25:47;;;;;;;;;25.67;19.33;;;;;21.06;44.81;101166.97;5038124;28;45631;-69
2023/06/17 05:28:13;;;;;;;;;19.67;16.67;;;;;21.05;45.17;101160.72;5037937;28;45293;-69
2023/06/17 05:30:42;;;;;;;;;19.00;16.33;;;;;21.07;45.06;101151.75;5038002;28;45159;-69
2023/06/17 05:33:08;;;;;;;;;17.67;15.67;;;;;21.02;45.53;101133.28;5038311;28;45500;-69
2023/06/17 05:35:33;;;;;;;;;21.33;17.67;;;;;21.19;44.99;101151.00;5037738;28;45612;-70
2023/06/17 05:37:59;;;;;;;;;16.33;16.00;;;;;21.34;44.70;101154.56;5037961;28;45334;-70
2023/06/17 05:40:24;;;;;;;;;17.33;17.00;;;;;21.36;44.49;101157.97;5038191;28;45781;-70
2023/06/17 05:42:49;;;;;;;;;15.33;15.33;;;;;21.15;44.29;101122.69;5057797;27;45519;-70
2023/06/17 05:45:15;;;;;;;;;17.67;15.67;;;;;21.32;44.23;101157.31;5033542;28;46568;-69
2023/06/17 05:47:40;;;;;;;;;18.33;16.00;;;;;21.32;44.10;101151.09;5037844;28;45250;-68
2023/06/17 05:50:06;;;;;;;;;18.33;17.67;;;;;21.33;44.60;101155.50;5038041;28;45364;-69
2023/06/17 05:52:31;;;;;;;;;17.67;14.00;;;;;21.37;44.49;101155.22;5037491;28;45508;-69
2023/06/17 05:54:56;;;;;;;;;16.00;16.00;;;;;21.42;44.73;101159.44;5037525;28;45455;-70
2023/06/17 05:57:22;;;;;;;;;17.00;16.33;;;;;21.45;44.67;101157.44;5037902;28;45302;-70
2023/06/17 05:59:47;;;;;;;;;21.00;18.67;;;;;21.47;44.41;101158.19;5037861;28;45231;-70
2023/06/17 06:02:12;;;;;;;;;21.67;19.00;;;;;21.45;44.60;101144.03;5038005;28;45310;-69
2023/06/17 06:04:38;;;;;;;;;20.33;18.00;;;;;21.43;44.73;101147.75;5037131;28;46408;-71
2023/06/17 06:07:03;;;;;;;;;21.00;17.33;;;;;21.50;44.77;101149.09;5037136;28;45274;-72
2023/06/17 06:09:28;;;;;;;;;19.00;16.00;;;;;21.56;44.84;101154.97;5037722;28;45385;-71
2023/06/17 06:11:54;;;;;;;;;19.33;19.33;;;;;21.61;44.40;101146.66;5034757;28;45377;-70
2023/06/17 06:14:20;;;;;;;;;15.00;15.00;;;;;21.73;44.81;101163.78;5039913;28;47364;-71
2023/06/17 06:16:45;;;;;;;;;16.00;16.00;;;;;21.78;44.31;101137.53;5037279;28;45405;-71
2023/06/17 06:19:10;;;;;;;;;18.00;17.67;;;;;21.86;44.88;101154.00;5037269;28;45785;-70
2023/06/17 06:21:35;;;;;;;;;19.00;19.00;;;;;21.97;44.28;101157.81;5037365;28;45400;-70
2023/06/17 06:24:01;;;;;;;;;26.00;18.00;;;;;22.12;44.07;101153.25;5037037;28;45472;-71
2023/06/17 06:26:26;;;;;;;;;23.00;18.67;;;;;22.11;44.07;101141.69;5037300;28;45377;-70
2023/06/17 06:28:52;;;;;;;;;19.00;17.67;;;;;22.21;43.80;101152.69;5036854;28;45317;-69
2023/06/17 06:31:17;;;;;;;;;19.00;17.67;;;;;22.26;43.97;101164.84;5037008;28;45708;-70
2023/06/17 06:33:43;;;;;;;;;20.00;20.00;;;;;22.15;43.90;101128.94;5037074;28;45423;-70
2023/06/17 06:36:09;;;;;;;;;23.67;20.67;;;;;22.27;43.83;101146.91;5037073;28;45530;-72
2023/06/17 06:38:34;;;;;;;;;21.33;18.67;;;;;22.31;43.84;101143.06;5037251;28;45328;-70
2023/06/17 06:41:00;;;;;;;;;19.67;16.67;;;;;22.40;44.14;101150.53;5036898;28;45434;-71
2023/06/17 06:43:25;;;;;;;;;18.67;18.33;;;;;22.53;43.92;101157.78;5036014;28;46578;-70
2023/06/17 06:45:51;;;;;;;;;17.00;17.00;;;;;22.59;43.92;101139.41;5037040;28;45292;-70
2023/06/17 06:48:16;;;;;;;;;20.00;19.67;;;;;22.74;43.48;101150.06;5036853;28;45372;-70
2023/06/17 06:50:41;;;;;;;;;19.67;17.00;;;;;22.95;43.13;101175.47;5037093;28;45438;-71
2023/06/17 06:53:07;;;;;;;;;21.33;20.33;;;;;22.98;42.98;101155.63;5036723;28;45709;-70
2023/06/17 06:55:32;;;;;;;;;19.33;18.00;;;;;23.11;42.86;101167.25;5036278;28;45452;-70
2023/06/17 06:57:57;;;;;;;;;22.33;21.67;;;;;23.08;42.94;101158.53;5037032;28;45443;-70
2023/06/17 07:00:24;;;;;;;;;22.67;20.00;;;;;23.20;42.41;101165.75;5037144;28;45402;-70
2023/06/17 07:02:49;;;;;;;;;20.67;19.67;;;;;23.32;42.71;101168.56;5036374;28;46777;-70
2023/06/17 07:05:14;;;;;;;;;24.67;20.00;;;;;23.38;42.76;101170.81;5039989;28;45273;-70
2023/06/17 07:07:40;;;;;;;;;21.00;21.00;;;;;23.48;42.99;101163.81;5039690;28;45440;-70
2023/06/17 07:10:06;;;;;;;;;23.33;21.33;;;;;23.60;42.72;101176.41;5040443;28;45333;-73
2023/06/17 07:12:31;;;;;;;;;21.00;19.33;;;;;23.82;42.60;101181.09;5039688;28;45747;-71
2023/06/17 07:14:57;;;;;;;;;19.67;19.33;;;;;24.13;42.02;101181.59;5040430;28;45747;-72
2023/06/17 07:17:22;;;;;;;;;22.33;19.67;;;;;24.35;41.38;101171.94;5028278;28;45306;-72
2023/06/17 07:19:47;;;;;;;;;22.33;21.00;;;;;24.45;41.53;101172.13;5027080;28;45305;-72
2023/06/17 07:22:13;;;;;;;;;20.67;18.00;;;;;24.53;41.29;101172.41;5039665;28;45550;-72
2023/06/17 07:24:38;;;;;;;;;20.00;14.67;;;;;24.62;41.41;101171.72;5039690;28;45523;-71
2023/06/17 07:27:04;;;;;;;;;20.67;18.33;;;;;24.64;41.51;101167.09;5039696;28;45359;-71
2023/06/17 07:29:30;;;;;;;;;25.33;20.00;;;;;24.66;40.93;101170.53;5039354;28;45533;-72
2023/06/17 07:31:55;;;;;;;;;23.00;21.67;;;;;24.63;40.95;101170.78;5039635;28;46886;-71
2023/06/17 07:34:20;;;;;;;;;18.67;17.00;;;;;24.84;41.42;101178.19;5039608;28;45463;-71
2023/06/17 07:36:46;;;;;;;;;19.00;17.00;;;;;25.02;39.97;101162.44;5037477;28;45368;-71
2023/06/17 07:39:12;;;;;;;;;21.00;21.00;;;;;25.20;40.39;101171.78;5038501;28;45769;-70
2023/06/17 07:41:37;;;;;;;;;18.67;15.67;;;;;25.28;39.81;101173.88;5037923;28;45405;-70
2023/06/17 07:44:03;;;;;;;;;18.33;18.33;;;;;25.42;40.12;101180.06;5038146;28;45478;-70
2023/06/17 07:46:28;;;;;;;;;17.67;17.67;;;;;25.51;39.71;101180.19;5038271;28;45458;-71
2023/06/17 07:48:53;;;;;;;;;21.33;19.67;;;;;25.60;39.21;101170.50;5038009;28;45326;-71
2023/06/17 07:51:19;;;;;;;;;17.33;17.33;;;;;25.63;39.40;101164.00;5038348;28;45407;-72
2023/06/17 07:53:44;;;;;;;;;20.33;17.33;;;;;25.59;38.95;101141.84;5037430;28;45406;-73
2023/06/17 07:56:10;;;;;;;;;22.00;17.33;;;;;25.78;38.81;101167.31;5038219;28;45346;-72
2023/06/17 07:58:35;;;;;;;;;17.00;17.00;;;;;25.93;38.00;101184.97;5038172;28;45338;-73
2023/06/17 08:01:01;;;;;;;;;18.00;17.00;;;;;25.83;38.13;101163.25;5037542;28;46406;-72
2023/06/17 08:03:27;;;;;;;;;22.67;21.00;;;;;25.99;38.29;101181.75;5037810;28;45467;-71
2023/06/17 08:05:52;;;;;;;;;18.00;15.67;;;;;25.99;38.28;101178.22;5037739;28;45526;-71
2023/06/17 08:08:18;;;;;;;;;17.00;16.33;;;;;26.03;38.47;101168.91;5038050;28;45383;-73
2023/06/17 08:10:44;;;;;;;;;15.67;14.67;;;;;26.08;37.24;101169.38;5037962;28;46409;-73
2023/06/17 08:13:09;;;;;;;;;30.00;27.67;;;;;26.08;37.76;101165.84;5038221;28;45526;-71
2023/06/17 08:15:35;;;;;;;;;19.00;18.67;;;;;26.23;38.19;101172.69;5036617;28;45488;-72
2023/06/17 08:18:00;;;;;;;;;18.67;17.33;;;;;26.29;37.50;101168.63;5038027;28;45534;-74
2023/06/17 08:20:26;;;;;;;;;14.67;14.67;;;;;26.33;36.87;101172.75;5037901;28;45456;-72
2023/06/17 08:22:51;;;;;;;;;19.00;16.33;;;;;26.31;36.79;101158.53;5037260;28;45382;-72
2023/06/17 08:25:16;;;;;;;;;18.67;16.67;;;;;26.48;37.14;101170.66;5037543;28;45495;-73
2023/06/17 08:27:47;;;;;;;;;19.00;17.67;;;;;26.51;36.81;101151.47;5037777;28;45338;-72
2023/06/17 08:30:13;;;;;;;;;16.67;16.67;;;;;26.61;36.89;101165.91;5037588;28;46516;-75
2023/06/17 08:32:38;;;;;;;;;16.67;16.67;;;;;26.77;36.58;101170.06;5037360;28;45667;-74
2023/06/17 08:35:06;;;;;;;;;17.00;16.00;;;;;26.84;36.44;101168.53;5037582;28;45466;-78
2023/06/17 08:37:35;;;;;;;;;17.67;17.00;;;;;26.90;36.38;101163.47;5037898;28;45380;-76
2023/06/17 08:40:01;;;;;;;;;18.00;15.00;;;;;26.91;36.08;101151.69;5036592;28;45424;-71
2023/06/17 08:42:27;;;;;;;;;15.67;14.33;;;;;27.05;36.20;101157.75;5037308;28;45468;-74
2023/06/17 08:44:54;;;;;;;;;19.00;16.33;;;;;26.95;36.41;101138.75;5037370;28;45456;-76
2023/06/17 08:47:20;;;;;;;;;15.33;14.00;;;;;27.06;35.72;101154.91;5037603;28;45722;-72
2023/06/17 08:49:46;;;;;;;;;18.33;18.33;;;;;27.06;35.85;101144.09;5037154;28;45370;-72
2023/06/17 08:52:13;;;;;;;;;15.33;15.33;;;;;27.08;36.60;101161.03;5036933;28;45476;-71
2023/06/17 08:54:42;;;;;;;;;14.00;13.33;;;;;27.09;36.33;101160.03;5036205;28;45622;-68
2023/06/17 08:57:12;;;;;;;;;15.00;15.00;;;;;27.00;36.58;101141.06;5036914;28;45495;-75
2023/06/17 08:59:38;;;;;;;;;13.33;12.00;;;;;26.97;35.91;101146.72;5037096;28;47153;-74
2023/06/17 09:02:05;;;;;;;;;23.00;20.67;;;;;27.03;36.32;101163.28;5036831;28;45428;-72
2023/06/17 09:04:31;;;;;;;;;16.67;15.00;;;;;26.96;36.30;101148.59;5036980;28;45457;-70
2023/06/17 09:06:56;;;;;;;;;18.33;18.33;;;;;26.95;36.58;101154.13;5037486;28;45379;-72
2023/06/17 09:09:21;;;;;;;;;15.33;15.33;;;;;26.87;36.27;101143.97;5036292;28;46307;-70
2023/06/17 09:11:51;;;;;;;;;16.00;15.00;;;;;26.82;35.64;101141.66;5037077;28;45392;-70
2023/06/17 09:14:22;;;;;;;;;12.33;12.33;;;;;26.92;36.04;101152.53;5036772;28;45404;-70
2023/06/17 09:16:49;;;;;;;;;19.67;18.00;;;;;26.95;35.89;101149.56;5037074;28;45514;-71
2023/06/17 09:19:14;;;;;;;;;17.67;16.33;;;;;26.83;35.11;101135.25;5036679;28;46232;-69
2023/06/17 09:21:40;;;;;;;;;16.00;15.67;;;;;27.03;35.33;101157.03;5036650;28;45306;-71
2023/06/17 09:24:10;;;;;;;;;16.00;15.67;;;;;27.03;35.32;101141.66;5036536;28;45501;-71
2023/06/17 09:26:40;;;;;;;;;15.33;12.33;;;;;27.17;35.13;101143.19;5037240;28;45931;-72
2023/06/17 09:29:07;;;;;;;;;18.33;17.00;;;;;27.31;34.56;101139.25;5035675;28;46026;-72
2023/06/17 09:31:48;;;;;;;;;15.00;14.00;;;;;27.55;34.39;101157.91;5036425;28;45338;-71
2023/06/17 09:34:14;;;;;;;;;17.33;13.67;;;;;27.63;34.43;101146.41;5036593;28;45478;-70
2023/06/17 09:36:40;;;;;;;;;16.33;13.33;;;;;27.73;33.70;101141.88;5036654;28;45445;-70
2023/06/17 09:39:06;;;;;;;;;14.33;13.67;;;;;27.85;34.49;101152.59;5036047;28;46266;-71
2023/06/17 09:41:44;;;;;;;;;13.33;13.33;;;;;28.25;34.19;101146.31;5036337;28;45428;-74
2023/06/17 09:44:13;;;;;;;;;13.33;13.33;;;;;29.13;33.39;101146.25;5036466;28;45345;-73
2023/06/17 09:46:46;;;;;;;;;23.67;20.67;;;;;30.29;31.80;101146.75;5036448;28;45334;-72
2023/06/17 09:49:15;;;;;;;;;16.67;14.00;;;;;31.32;30.46;101140.81;5036141;28;45500;-75
2023/06/17 09:51:42;;;;;;;;;18.67;17.33;;;;;32.27;29.55;101142.53;5034495;28;45495;-73
2023/06/17 09:54:09;;;;;;;;;18.67;16.00;;;;;33.01;28.85;101145.34;5035900;28;45581;-73
2023/06/17 09:56:35;;;;;;;;;17.33;17.33;;;;;33.72;27.87;101139.16;5036542;28;45275;-71
2023/06/17 09:59:11;;;;;;;;;15.33;15.33;;;;;34.50;27.89;101142.81;5035831;28;47429;-72
2023/06/17 10:01:39;;;;;;;;;14.00;14.00;;;;;35.07;26.80;101127.78;5035926;28;45485;-72
2023/06/17 10:04:06;;;;;;;;;15.00;15.00;;;;;35.52;25.09;101131.38;5036155;28;45367;-69
2023/06/17 10:06:34;;;;;;;;;18.00;17.67;;;;;35.99;24.92;101125.66;5036364;28;45521;-74
2023/06/17 10:09:06;;;;;;;;;16.33;16.00;;;;;36.48;24.33;101130.38;5035309;28;45663;-74
2023/06/17 10:11:32;;;;;;;;;15.33;15.33;;;;;36.86;24.22;101129.25;5036109;28;45452;-72
2023/06/17 10:14:10;;;;;;;;;15.00;15.00;;;;;37.12;25.50;101139.56;5035757;28;45310;-72
2023/06/17 10:16:40;;;;;;;;;15.67;15.00;;;;;37.25;23.92;101136.06;5036109;28;45729;-71
2023/06/17 10:19:08;;;;;;;;;14.50;14.25;;;;;37.46;23.60;101141.50;5035755;28;46264;-69
2023/06/17 10:21:38;;;;;;;;;13.75;12.00;;;;;37.63;23.41;101119.16;5037005;28;45462;-69
2023/06/17 10:24:04;;;;;;;;;17.50;17.50;;;;;37.78;23.92;101130.03;5036939;28;45482;-71
2023/06/17 10:26:30;;;;;;;;;18.25;18.25;;;;;38.02;23.39;101123.09;5037302;28;45383;-75
2023/06/17 10:29:06;;;;;;;;;16.50;14.25;;;;;38.16;23.50;101135.00;5036194;28;46227;-72
2023/06/17 10:31:37;;;;;;;;;16.00;14.75;;;;;38.19;22.76;101133.75;5036689;28;45514;-71
2023/06/17 10:34:03;;;;;;;;;15.00;15.00;;;;;38.07;22.56;101131.59;5036902;28;45410;-68
2023/06/17 10:36:29;;;;;;;;;17.25;15.50;;;;;37.75;22.78;101119.47;5036983;28;45324;-67
2023/06/17 10:38:57;;;;;;;;;16.75;15.00;;;;;37.60;24.04;101131.41;5035842;28;46492;-67
2023/06/17 10:41:49;;;;;;;;;16.50;16.50;;;;;37.46;23.72;101118.69;5036681;28;45477;-70
2023/06/17 10:44:33;;;;;;;;;18.25;14.50;;;;;37.38;23.52;101116.09;5032401;28;45503;-67
2023/06/17 10:46:58;;;;;;;;;14.75;14.00;;;;;37.37;23.89;101108.88;5036955;28;45447;-67
2023/06/17 10:49:24;;;;;;;;;16.00;16.00;;;;;37.37;23.82;101097.91;5036818;28;46168;-68
2023/06/17 10:51:54;;;;;;;;;15.25;15.25;;;;;37.27;23.72;101101.88;5035949;28;45516;-70
2023/06/17 10:54:30;;;;;;;;;14.50;14.50;;;;;37.08;23.39;101106.19;5035753;28;45665;-69
2023/06/17 10:56:56;;;;;;;;;14.75;14.75;;;;;37.04;23.84;101096.66;5036070;28;45528;-71
2023/06/17 10:59:30;;;;;;;;;14.25;14.25;;;;;36.79;23.56;101099.03;5036059;28;45397;-66
2023/06/17 11:02:03;;;;;;;;;16.00;16.00;;;;;36.49;24.34;101090.09;5036305;28;45508;-66
2023/06/17 11:04:31;;;;;;;;;14.25;14.00;;;;;36.18;24.24;101080.31;5036070;28;45294;-68
2023/06/17 11:06:58;;;;;;;;;18.25;15.75;;;;;35.86;24.69;101090.75;5036785;28;45367;-69